Verda, Louisiana
Current Conditions -  °F | °C
As of 8:35 AM on Sunday 23 Nov 2014 (Local Time) from KIER Reporting Station
Heavy Rain Heavy Rain  
Wind Chill: 63°   Ceiling: 1500
Heat Index: 63°   Visibility: 4mi
Dew Point: 63°   Wind: 5mph
Humidity: 99%   Direction: 280°W
Pressure: 29.56"   Gusts: NA
Location:  31.7°N, 92.77°W
Report Text: KIER 231435Z AUTO 28004KT 4SM +RA SCT006 BKN015 OVC026 17/17 A2956 RMK AO2 T01720171
Loading
Personal Weather Stations






























Interactive Weather Map New forecast layout! Learn more

10-Day Weather Forecast

Advertisements
Track Severe Weather on mobile